createdAt,value
2018-07-06T00:01:27.608Z,90.50
2018-07-06T00:04:07.254Z,90.60
2018-07-06T00:06:46.843Z,90.80
2018-07-06T00:09:26.537Z,90.70
2018-07-06T00:12:06.208Z,90.60
2018-07-06T00:14:45.812Z,90.30
2018-07-06T00:17:25.333Z,90.40
2018-07-06T00:20:04.984Z,90.20
2018-07-06T00:22:44.565Z,90.20
2018-07-06T00:25:24.180Z,90.10
2018-07-06T00:28:03.806Z,90.10
2018-07-06T00:30:43.468Z,90.10
2018-07-06T00:33:23.213Z,90.20
2018-07-06T00:36:02.853Z,90.10
2018-07-06T00:38:42.324Z,90.20
2018-07-06T00:41:21.870Z,90.20
2018-07-06T00:44:01.435Z,89.90
2018-07-06T00:46:41.242Z,89.80
2018-07-06T00:49:21.024Z,90.00
2018-07-06T00:52:00.596Z,90.00
2018-07-06T00:54:40.341Z,90.00
2018-07-06T00:57:19.828Z,90.10
2018-07-06T00:59:59.561Z,90.10
2018-07-06T01:02:39.136Z,90.10
2018-07-06T01:05:18.787Z,90.20
2018-07-06T01:07:58.299Z,90.20
2018-07-06T01:10:37.923Z,90.10
2018-07-06T01:13:17.519Z,90.10
2018-07-06T01:15:57.245Z,89.90
2018-07-06T01:18:36.809Z,89.90
2018-07-06T01:21:16.453Z,90.00
2018-07-06T01:23:55.934Z,90.10
2018-07-06T01:26:35.531Z,90.00
2018-07-06T01:29:15.173Z,90.10
2018-07-06T01:31:54.945Z,90.10
2018-07-06T01:34:34.468Z,90.00
2018-07-06T01:37:15.209Z,90.00
2018-07-06T01:39:55.691Z,90.20
2018-07-06T01:45:09.116Z,90.20
2018-07-06T01:47:48.826Z,90.20
2018-07-06T01:50:28.417Z,90.20
2018-07-06T01:53:08.108Z,90.10
2018-07-06T01:55:47.848Z,90.40
2018-07-06T01:58:27.574Z,90.40
2018-07-06T02:01:07.196Z,90.80
2018-07-06T02:03:46.819Z,90.70
2018-07-06T02:06:26.389Z,90.70
2018-07-06T02:09:05.933Z,90.90
2018-07-06T02:11:45.657Z,90.90
2018-07-06T02:14:25.331Z,90.90
2018-07-06T02:17:05.132Z,90.80
2018-07-06T02:19:44.830Z,90.70
2018-07-06T02:22:24.568Z,90.90
2018-07-06T02:25:04.140Z,91.10
2018-07-06T02:27:43.792Z,91.50
2018-07-06T02:30:23.471Z,91.60
2018-07-06T02:33:03.175Z,91.60
2018-07-06T02:35:42.789Z,91.70
2018-07-06T02:40:56.203Z,91.80
2018-07-06T02:43:35.952Z,91.60
2018-07-06T02:46:15.493Z,91.30
2018-07-06T02:48:55.272Z,91.40
2018-07-06T02:51:34.876Z,91.30
2018-07-06T02:54:14.586Z,91.30
2018-07-06T02:56:54.229Z,91.40
2018-07-06T02:59:33.736Z,91.40
2018-07-06T03:02:13.355Z,91.60
2018-07-06T03:04:53.080Z,91.40
2018-07-06T03:07:32.613Z,91.40
2018-07-06T03:10:12.209Z,91.30
2018-07-06T03:12:51.809Z,91.40
2018-07-06T03:18:05.188Z,91.20
2018-07-06T03:20:45.147Z,91.40
2018-07-06T03:23:24.747Z,91.40
2018-07-06T03:26:04.505Z,91.30
2018-07-06T03:28:44.395Z,91.30
2018-07-06T03:31:23.788Z,91.20
2018-07-06T03:34:03.632Z,91.20
2018-07-06T03:36:43.178Z,91.10
2018-07-06T03:39:22.833Z,91.20
2018-07-06T03:42:02.615Z,91.10
2018-07-06T03:44:42.493Z,91.30
2018-07-06T03:47:22.139Z,91.30
2018-07-06T03:50:01.879Z,91.20
2018-07-06T03:52:41.442Z,91.30
2018-07-06T03:55:21.744Z,91.20
2018-07-06T03:58:03.047Z,91.10
2018-07-06T04:00:42.914Z,91.00
2018-07-06T04:03:22.532Z,90.80
2018-07-06T04:06:02.477Z,91.00
2018-07-06T04:08:42.166Z,91.00
2018-07-06T04:11:21.788Z,91.20
2018-07-06T04:14:01.260Z,91.20
2018-07-06T04:16:40.909Z,91.20
2018-07-06T04:19:20.584Z,91.10
2018-07-06T04:22:00.151Z,91.20
2018-07-06T04:24:39.870Z,91.30
2018-07-06T04:27:19.465Z,91.20
2018-07-06T04:29:59.041Z,91.20
2018-07-06T04:32:38.639Z,91.10
2018-07-06T04:35:18.332Z,91.10
2018-07-06T04:37:57.856Z,91.30
2018-07-06T04:40:37.493Z,91.50
2018-07-06T04:43:17.096Z,91.80
2018-07-06T04:45:56.613Z,91.90
2018-07-06T04:51:09.988Z,92.00
2018-07-06T04:53:49.571Z,92.00
2018-07-06T04:56:29.148Z,92.20
2018-07-06T04:59:08.885Z,92.20
2018-07-06T05:01:48.586Z,92.20
2018-07-06T05:04:28.092Z,92.10
2018-07-06T05:07:07.719Z,92.00
2018-07-06T05:09:47.315Z,91.90
2018-07-06T05:12:26.801Z,91.60
2018-07-06T05:15:06.338Z,91.90
2018-07-06T05:17:45.995Z,91.80
2018-07-06T05:20:25.716Z,91.60
2018-07-06T05:23:05.254Z,91.70
2018-07-06T05:25:44.976Z,91.70
2018-07-06T05:28:24.612Z,91.60
2018-07-06T05:31:04.322Z,91.50
2018-07-06T05:33:43.938Z,91.80
2018-07-06T05:36:23.540Z,91.90
2018-07-06T05:39:03.393Z,92.10
2018-07-06T05:41:43.056Z,92.00
2018-07-06T05:44:22.626Z,92.20
2018-07-06T05:47:02.261Z,92.20
2018-07-06T05:49:41.892Z,92.10
2018-07-06T05:52:21.572Z,91.90
2018-07-06T05:55:01.188Z,92.00
2018-07-06T05:57:40.840Z,92.40
2018-07-06T06:00:20.608Z,92.60
2018-07-06T06:03:00.229Z,92.60
2018-07-06T06:05:39.992Z,92.70
2018-07-06T06:08:07.346Z,92.70
2018-07-06T06:10:35.804Z,93.00
2018-07-06T06:13:04.319Z,93.00
2018-07-06T06:15:32.784Z,93.10
2018-07-06T06:18:01.207Z,93.20
2018-07-06T06:20:29.680Z,93.20
2018-07-06T06:22:58.166Z,93.10
2018-07-06T06:27:54.760Z,93.30
2018-07-06T06:30:23.212Z,93.30
2018-07-06T06:32:51.782Z,93.50
2018-07-06T06:35:20.327Z,93.60
2018-07-06T06:37:48.971Z,93.60
2018-07-06T06:40:17.443Z,93.50
2018-07-06T06:42:46.009Z,93.60
2018-07-06T06:45:14.449Z,93.70
2018-07-06T06:47:42.957Z,93.70
2018-07-06T06:50:11.436Z,93.60
2018-07-06T06:55:08.121Z,93.80
2018-07-06T06:57:36.606Z,94.00
2018-07-06T07:00:05.091Z,94.00
2018-07-06T07:02:33.601Z,94.00
2018-07-06T07:05:02.089Z,94.00
2018-07-06T07:07:30.639Z,94.10
2018-07-06T07:09:59.104Z,94.00
2018-07-06T07:12:27.633Z,93.90
2018-07-06T07:14:56.183Z,94.10
2018-07-06T07:17:25.267Z,94.00
2018-07-06T07:19:53.748Z,94.00
2018-07-06T07:22:22.242Z,94.10
2018-07-06T07:24:50.729Z,94.10
2018-07-06T07:27:19.250Z,94.10
2018-07-06T07:29:47.729Z,94.10
2018-07-06T07:32:16.237Z,94.10
2018-07-06T07:34:44.717Z,93.90
2018-07-06T07:37:13.232Z,94.10
2018-07-06T07:39:41.769Z,94.00
2018-07-06T07:42:10.268Z,94.00
2018-07-06T07:44:38.753Z,93.80
2018-07-06T07:47:07.176Z,94.00
2018-07-06T07:49:35.688Z,94.10
2018-07-06T07:52:15.257Z,94.00
2018-07-06T07:57:21.644Z,94.10
2018-07-06T07:59:50.894Z,94.10
2018-07-06T08:02:19.374Z,94.00
2018-07-06T08:04:48.433Z,93.80
2018-07-06T08:07:16.977Z,94.00
2018-07-06T08:09:45.528Z,94.00
2018-07-06T08:12:14.007Z,94.10
2018-07-06T08:14:42.649Z,94.20
2018-07-06T08:17:11.103Z,94.20
2018-07-06T08:19:39.588Z,93.90
2018-07-06T08:22:08.061Z,93.50
2018-07-06T08:24:36.536Z,93.40
2018-07-06T08:27:04.986Z,93.20
2018-07-06T08:29:33.433Z,92.70
2018-07-06T08:32:01.895Z,92.90
2018-07-06T08:34:41.589Z,93.00
2018-07-06T08:37:24.896Z,93.10
2018-07-06T08:39:53.399Z,93.00
2018-07-06T08:42:22.221Z,93.00
2018-07-06T08:44:50.695Z,93.00
2018-07-06T08:47:19.117Z,93.10
2018-07-06T08:49:47.520Z,92.40
2018-07-06T08:54:44.444Z,92.60
2018-07-06T08:57:12.915Z,92.50
2018-07-06T08:59:41.434Z,92.50
2018-07-06T09:02:09.889Z,92.80
2018-07-06T09:04:38.348Z,92.80
2018-07-06T09:07:06.876Z,92.80
2018-07-06T09:09:35.296Z,92.80
2018-07-06T09:12:03.883Z,93.20
2018-07-06T09:14:32.321Z,93.10
2018-07-06T09:17:00.776Z,93.30
2018-07-06T09:19:29.393Z,93.40
2018-07-06T09:21:57.706Z,93.60
2018-07-06T09:24:26.116Z,93.50
2018-07-06T09:26:54.614Z,93.50
2018-07-06T09:29:23.025Z,93.50
2018-07-06T09:31:51.479Z,93.80
2018-07-06T09:34:19.950Z,93.80
2018-07-06T09:36:48.413Z,93.60
2018-07-06T09:39:16.841Z,93.70
2018-07-06T09:41:45.314Z,93.30
2018-07-06T09:44:13.758Z,93.30
2018-07-06T09:46:42.221Z,93.40
2018-07-06T09:49:10.860Z,93.10
2018-07-06T09:51:39.316Z,93.10
2018-07-06T09:54:07.787Z,92.60
2018-07-06T09:56:36.284Z,92.00
2018-07-06T09:59:04.793Z,91.60
2018-07-06T10:01:33.245Z,91.20
2018-07-06T10:04:01.683Z,91.10
2018-07-06T10:06:30.176Z,91.40
2018-07-06T10:08:58.660Z,91.00
2018-07-06T10:11:27.148Z,90.80
2018-07-06T10:13:55.572Z,90.90
2018-07-06T10:16:24.599Z,90.60
2018-07-06T10:18:53.076Z,90.20
2018-07-06T10:21:21.534Z,90.10
2018-07-06T10:23:49.954Z,90.20
2018-07-06T10:26:18.439Z,90.40
2018-07-06T10:31:00.500Z,90.70
2018-07-06T10:33:29.012Z,90.40
2018-07-06T10:35:57.443Z,90.50
2018-07-06T10:38:26.105Z,90.70
2018-07-06T10:40:54.533Z,90.40
2018-07-06T10:43:22.972Z,90.60
2018-07-06T10:45:51.427Z,90.80
2018-07-06T10:48:19.979Z,90.60
2018-07-06T10:50:48.433Z,90.40
2018-07-06T10:53:16.875Z,90.40
2018-07-06T10:55:45.354Z,90.70
2018-07-06T10:58:13.801Z,89.90
2018-07-06T11:00:42.229Z,90.10
2018-07-06T11:03:10.703Z,89.90
2018-07-06T11:05:39.139Z,90.10
2018-07-06T11:08:07.688Z,90.60
2018-07-06T11:10:36.114Z,91.10
2018-07-06T11:13:04.610Z,91.10
2018-07-06T11:15:33.192Z,91.30
2018-07-06T11:18:01.686Z,91.40
2018-07-06T11:20:30.140Z,91.50
2018-07-06T11:22:58.640Z,91.50
2018-07-06T11:25:27.144Z,91.90
2018-07-06T11:27:55.517Z,92.10
2018-07-06T11:30:23.987Z,92.20
2018-07-06T11:32:52.472Z,92.10
2018-07-06T11:35:20.960Z,91.70
2018-07-06T11:37:49.508Z,91.70
2018-07-06T11:40:17.947Z,91.50
2018-07-06T11:42:46.510Z,90.80
2018-07-06T11:45:14.997Z,90.70
2018-07-06T11:47:43.437Z,90.10
2018-07-06T11:50:11.926Z,90.90
2018-07-06T11:52:40.382Z,91.10
2018-07-06T11:55:08.954Z,91.80
2018-07-06T11:57:37.439Z,92.50
2018-07-06T12:00:06.082Z,92.30
2018-07-06T12:02:34.582Z,92.10
2018-07-06T12:05:03.080Z,92.50
2018-07-06T12:07:31.529Z,92.30
2018-07-06T12:10:00.041Z,91.60
2018-07-06T12:12:28.545Z,90.90
2018-07-06T12:14:57.044Z,90.90
2018-07-06T12:17:25.501Z,91.20
2018-07-06T12:19:53.982Z,91.60
2018-07-06T12:22:22.417Z,91.60
2018-07-06T12:24:50.907Z,91.90
2018-07-06T12:27:19.381Z,92.40
2018-07-06T12:29:47.862Z,92.30
2018-07-06T12:32:16.311Z,92.30
2018-07-06T12:34:45.203Z,91.70
2018-07-06T12:37:13.904Z,91.80
2018-07-06T12:39:42.401Z,91.80
2018-07-06T12:42:10.829Z,92.10
2018-07-06T12:44:39.312Z,91.50
2018-07-06T12:47:07.868Z,91.50
2018-07-06T12:49:36.298Z,92.30
2018-07-06T12:52:04.757Z,92.80
2018-07-06T12:54:33.545Z,92.80
2018-07-06T12:57:01.993Z,93.10
2018-07-06T12:59:31.113Z,93.00
2018-07-06T13:01:59.563Z,92.50
2018-07-06T13:04:28.013Z,92.60
2018-07-06T13:06:56.458Z,92.70
2018-07-06T13:09:24.936Z,93.00
2018-07-06T13:11:53.381Z,93.20
2018-07-06T13:14:22.090Z,92.90
2018-07-06T13:16:50.603Z,93.00
2018-07-06T13:19:19.037Z,93.10
2018-07-06T13:21:47.872Z,92.90
2018-07-06T13:24:16.313Z,93.10
2018-07-06T13:26:44.857Z,93.20
2018-07-06T13:32:44.660Z,92.50
2018-07-06T13:35:13.203Z,91.80
2018-07-06T13:37:41.664Z,91.80
2018-07-06T13:40:10.137Z,91.30
2018-07-06T13:42:38.585Z,91.50
2018-07-06T13:45:07.079Z,91.40
2018-07-06T13:47:35.523Z,91.00
2018-07-06T13:50:04.040Z,90.80
2018-07-06T13:52:32.509Z,90.50
2018-07-06T13:55:01.063Z,90.80
2018-07-06T13:57:29.589Z,90.20
2018-07-06T13:59:58.069Z,90.40
2018-07-06T14:02:26.591Z,90.50
2018-07-06T14:04:55.087Z,89.80
2018-07-06T14:07:23.581Z,90.00
2018-07-06T14:09:52.052Z,90.20
2018-07-06T14:12:20.505Z,90.10
2018-07-06T14:14:48.928Z,90.00
2018-07-06T14:17:17.421Z,89.90
2018-07-06T14:19:45.889Z,90.50
2018-07-06T14:22:14.366Z,90.40
2018-07-06T14:24:42.836Z,90.10
2018-07-06T14:27:11.800Z,89.90
2018-07-06T14:29:40.269Z,90.00
2018-07-06T14:32:08.863Z,90.00
2018-07-06T14:34:37.325Z,90.10
2018-07-06T14:37:05.808Z,90.10
2018-07-06T14:39:34.279Z,90.40
2018-07-06T14:44:31.149Z,91.00
2018-07-06T14:46:59.656Z,91.30
2018-07-06T14:49:28.085Z,91.30
2018-07-06T14:51:56.554Z,91.40
2018-07-06T14:54:25.005Z,91.40
2018-07-06T14:56:53.536Z,91.50
2018-07-06T14:59:21.990Z,91.00
2018-07-06T15:01:50.479Z,91.00
2018-07-06T15:04:18.924Z,90.50
2018-07-06T15:06:47.481Z,90.20
2018-07-06T15:09:15.856Z,89.90
2018-07-06T15:11:44.329Z,90.10
2018-07-06T15:14:12.797Z,90.10
2018-07-06T15:16:41.268Z,89.80
2018-07-06T15:19:09.743Z,89.40
2018-07-06T15:21:38.239Z,89.60
2018-07-06T15:24:06.705Z,89.40
2018-07-06T15:26:35.188Z,89.70
2018-07-06T15:29:03.678Z,89.50
2018-07-06T15:31:32.157Z,89.00
2018-07-06T15:34:00.725Z,89.00
2018-07-06T15:36:29.193Z,88.70
2018-07-06T15:38:57.669Z,89.20
2018-07-06T15:41:26.089Z,89.40
2018-07-06T15:43:54.579Z,89.00
2018-07-06T15:46:23.100Z,89.00
2018-07-06T15:48:51.597Z,89.10
2018-07-06T15:51:20.053Z,88.90
2018-07-06T15:53:48.536Z,88.60
2018-07-06T15:56:17.040Z,88.70
2018-07-06T15:58:45.487Z,88.30
2018-07-06T16:01:13.945Z,88.30
2018-07-06T16:03:42.486Z,88.50
2018-07-06T16:06:10.930Z,88.30
2018-07-06T16:08:39.378Z,88.00
2018-07-06T16:11:07.865Z,88.10
2018-07-06T16:13:36.379Z,88.00
2018-07-06T16:16:04.870Z,87.60
2018-07-06T16:18:33.472Z,87.30
2018-07-06T16:21:01.930Z,87.30
2018-07-06T16:23:30.439Z,88.20
2018-07-06T16:25:58.941Z,88.30
2018-07-06T16:28:27.400Z,88.60
2018-07-06T16:30:55.890Z,88.70
2018-07-06T16:33:24.376Z,88.90
2018-07-06T16:35:52.799Z,88.80
2018-07-06T16:38:21.233Z,88.80
2018-07-06T16:40:49.669Z,88.90
2018-07-06T16:43:18.158Z,88.80
2018-07-06T16:45:46.631Z,88.10
2018-07-06T16:48:15.167Z,88.00
2018-07-06T16:50:43.664Z,88.20
2018-07-06T16:53:12.148Z,88.60
2018-07-06T16:55:40.632Z,88.80
2018-07-06T16:58:09.200Z,88.90
2018-07-06T17:00:37.632Z,88.80
2018-07-06T17:03:06.109Z,88.90
2018-07-06T17:05:34.537Z,89.10
2018-07-06T17:08:02.973Z,88.80
2018-07-06T17:10:31.384Z,88.80
2018-07-06T17:12:59.843Z,88.70
2018-07-06T17:15:28.249Z,89.10
2018-07-06T17:17:56.709Z,89.00
2018-07-06T17:20:25.140Z,89.00
2018-07-06T17:22:53.597Z,89.10
2018-07-06T17:25:22.103Z,89.10
2018-07-06T17:27:50.582Z,89.10
2018-07-06T17:30:19.088Z,89.00
2018-07-06T17:32:47.556Z,89.20
2018-07-06T17:35:16.030Z,88.90
2018-07-06T17:37:44.539Z,88.80
2018-07-06T17:40:12.968Z,89.10
2018-07-06T17:42:41.479Z,89.10
2018-07-06T17:45:09.964Z,89.40
2018-07-06T17:47:38.405Z,89.50
2018-07-06T17:50:07.021Z,89.50
2018-07-06T17:52:35.534Z,89.70
2018-07-06T17:55:04.126Z,89.70
2018-07-06T17:57:32.639Z,90.10
2018-07-06T18:00:01.203Z,90.10
2018-07-06T18:04:57.796Z,90.20
2018-07-06T18:07:26.289Z,90.40
2018-07-06T18:09:54.760Z,90.40
2018-07-06T18:12:23.228Z,90.50
2018-07-06T18:14:51.820Z,90.50
2018-07-06T18:17:20.381Z,90.50
2018-07-06T18:19:48.908Z,90.40
2018-07-06T18:22:17.405Z,90.50
2018-07-06T18:24:45.924Z,90.70
2018-07-06T18:27:14.358Z,90.80
2018-07-06T18:29:42.808Z,90.90
2018-07-06T18:32:11.267Z,91.00
2018-07-06T18:34:39.819Z,90.90
2018-07-06T18:37:08.238Z,91.00
2018-07-06T18:39:36.822Z,91.20
2018-07-06T18:42:05.390Z,91.30
2018-07-06T18:44:33.853Z,91.70
2018-07-06T18:47:02.321Z,91.70
2018-07-06T18:49:30.795Z,91.70
2018-07-06T18:51:59.301Z,91.80
2018-07-06T18:54:27.754Z,91.70
2018-07-06T18:56:56.299Z,91.60
2018-07-06T18:59:24.810Z,91.60
2018-07-06T19:01:53.341Z,91.60
2018-07-06T19:04:21.808Z,91.30
2018-07-06T19:06:50.259Z,91.10
2018-07-06T19:09:18.764Z,91.20
2018-07-06T19:11:47.345Z,91.20
2018-07-06T19:14:15.840Z,91.20
2018-07-06T19:16:44.407Z,91.40
2018-07-06T19:19:12.951Z,91.40
2018-07-06T19:21:41.458Z,91.30
2018-07-06T19:24:09.934Z,91.30
2018-07-06T19:26:38.440Z,91.30
2018-07-06T19:29:06.905Z,91.30
2018-07-06T19:31:35.482Z,91.20
2018-07-06T19:34:04.043Z,91.20
2018-07-06T19:36:32.585Z,91.10
2018-07-06T19:39:01.103Z,91.00
2018-07-06T19:41:29.594Z,90.90
2018-07-06T19:43:58.055Z,90.90
2018-07-06T19:46:26.596Z,90.90
2018-07-06T19:48:55.037Z,91.00
2018-07-06T19:53:51.731Z,91.30
2018-07-06T19:56:20.283Z,91.20
2018-07-06T19:58:48.809Z,91.20
2018-07-06T20:01:33.914Z,91.40
2018-07-06T20:04:02.402Z,91.30
2018-07-06T20:06:30.876Z,91.20
2018-07-06T20:08:59.385Z,91.40
2018-07-06T20:11:27.880Z,91.50
2018-07-06T20:13:56.463Z,91.40
2018-07-06T20:16:24.948Z,91.50
2018-07-06T20:18:53.430Z,91.50
2018-07-06T20:21:21.876Z,91.40
2018-07-06T20:23:50.302Z,91.40
2018-07-06T20:26:18.747Z,91.40
2018-07-06T20:28:47.206Z,91.20
2018-07-06T20:31:15.907Z,91.10
2018-07-06T20:33:44.343Z,91.30
2018-07-06T20:36:12.893Z,91.60
2018-07-06T20:38:41.329Z,91.40
2018-07-06T20:41:09.808Z,91.60
2018-07-06T20:43:38.244Z,91.60
2018-07-06T20:46:06.795Z,91.60
2018-07-06T20:48:35.233Z,91.40
2018-07-06T20:51:03.793Z,91.30
2018-07-06T20:53:32.202Z,91.40
2018-07-06T20:56:00.677Z,91.30
2018-07-06T20:58:29.143Z,91.20
2018-07-06T21:00:57.623Z,91.20
2018-07-06T21:03:26.045Z,91.20
2018-07-06T21:05:54.493Z,91.40
2018-07-06T21:08:22.961Z,91.50
2018-07-06T21:10:51.443Z,91.40
2018-07-06T21:13:19.920Z,91.70
2018-07-06T21:15:48.448Z,91.70
2018-07-06T21:18:16.884Z,91.80
2018-07-06T21:20:45.371Z,91.80
2018-07-06T21:23:13.861Z,91.90
2018-07-06T21:25:42.573Z,92.10
2018-07-06T21:28:11.069Z,92.20
2018-07-06T21:30:39.603Z,92.40
2018-07-06T21:33:08.103Z,92.50
2018-07-06T21:38:04.760Z,92.60
2018-07-06T21:40:33.251Z,92.80
2018-07-06T21:43:02.395Z,92.80
2018-07-06T21:45:30.878Z,93.10
2018-07-06T21:47:59.329Z,92.90
2018-07-06T21:50:27.810Z,93.10
2018-07-06T21:52:56.301Z,93.00
2018-07-06T21:55:24.801Z,92.90
2018-07-06T21:57:53.240Z,92.90
2018-07-06T22:00:32.389Z,92.90
2018-07-06T22:03:00.882Z,92.90
2018-07-06T22:05:29.400Z,93.00
2018-07-06T22:07:57.833Z,93.00
2018-07-06T22:10:26.301Z,92.80
2018-07-06T22:12:54.773Z,92.80
2018-07-06T22:15:23.209Z,92.80
2018-07-06T22:17:51.661Z,92.80
2018-07-06T22:20:20.137Z,92.80
2018-07-06T22:22:48.713Z,93.00
2018-07-06T22:25:17.200Z,92.80
2018-07-06T22:30:14.029Z,92.90
2018-07-06T22:32:42.494Z,93.10
2018-07-06T22:35:10.947Z,93.10
2018-07-06T22:37:39.421Z,93.10
2018-07-06T22:40:07.932Z,93.10
2018-07-06T22:42:36.426Z,93.30
2018-07-06T22:45:04.887Z,93.30
2018-07-06T22:47:33.365Z,93.40
2018-07-06T22:50:01.815Z,93.10
2018-07-06T22:52:30.297Z,93.10
2018-07-06T22:54:58.748Z,93.40
2018-07-06T22:57:27.341Z,93.30
2018-07-06T22:59:55.764Z,93.50
2018-07-06T23:02:24.280Z,93.50
2018-07-06T23:04:52.775Z,93.50
2018-07-06T23:07:21.321Z,93.60
2018-07-06T23:09:49.736Z,93.50
2018-07-06T23:12:18.172Z,93.50
2018-07-06T23:14:46.653Z,93.50
2018-07-06T23:17:15.171Z,93.60
2018-07-06T23:19:43.636Z,93.40
2018-07-06T23:22:12.277Z,93.40
2018-07-06T23:24:40.783Z,93.20
2018-07-06T23:27:09.337Z,93.30
2018-07-06T23:29:37.745Z,93.50
2018-07-06T23:32:06.260Z,93.40
2018-07-06T23:34:34.745Z,93.50
2018-07-06T23:37:33.588Z,93.40
2018-07-06T23:40:02.084Z,93.40
2018-07-06T23:42:30.532Z,93.30
2018-07-06T23:44:59.104Z,93.30
2018-07-06T23:47:27.528Z,93.20
2018-07-06T23:49:55.991Z,93.30
2018-07-06T23:52:24.436Z,93.20
2018-07-06T23:54:52.948Z,93.30
2018-07-06T23:57:21.440Z,93.40
2018-07-06T23:59:49.888Z,93.30
